SWR7HL ENGM-LSZH
Flight info
| Callsign | SWR7HL |
|---|---|
| Flight time | N/A |
| Altitude | 39000 |
| Route | VIPPA6D VIPPA DCT AMRAK/N0476F380 DCT SWALM DCT OMOGI/N0478F390 T721 RILAX RILAX2A |
| Aircraft | B77W/H-SDE1E2E3FGHIJ2J3J4J5M1RWXY/LB1D1 |
Departure
| Time | 2026-05-06 12:10 |
|---|---|
| Airport | Oslo-Gardermoen International Airport (ENGM) |
Arrival
| Time | N/A |
|---|---|
| Airport | Zürich Airport (LSZH) |
| Time | Latitude | Longitude | Altitude | Speed | Heading |
|---|---|---|---|---|---|
| 2026-05-06 11:51 | 60.19254 | 11.10844 | 694 ft | 0 kts | 339° |
| 2026-05-06 11:53 | 60.19252 | 11.10845 | 694 ft | 1 kts | 339° |
| 2026-05-06 11:54 | 60.19239 | 11.10852 | 694 ft | 2 kts | 1° |
| 2026-05-06 11:54 | 60.19224 | 11.10846 | 694 ft | 2 kts | 22° |
| 2026-05-06 11:54 | 60.19211 | 11.10831 | 694 ft | 2 kts | 41° |
| 2026-05-06 11:54 | 60.19201 | 11.10809 | 694 ft | 2 kts | 61° |
| 2026-05-06 11:55 | 60.19196 | 11.10781 | 694 ft | 2 kts | 81° |
| 2026-05-06 11:55 | 60.19196 | 11.10751 | 694 ft | 2 kts | 100° |
| 2026-05-06 11:55 | 60.19198 | 11.10730 | 694 ft | 0 kts | 109° |
| 2026-05-06 11:55 | 60.19199 | 11.10728 | 694 ft | 0 kts | 109° |
| 2026-05-06 11:57 | 60.19194 | 11.10757 | 694 ft | 5 kts | 109° |
| 2026-05-06 11:57 | 60.19178 | 11.10860 | 694 ft | 10 kts | 106° |
| 2026-05-06 11:58 | 60.19157 | 11.11010 | 694 ft | 11 kts | 105° |
| 2026-05-06 11:58 | 60.19137 | 11.11162 | 694 ft | 11 kts | 102° |
| 2026-05-06 11:58 | 60.19175 | 11.11306 | 694 ft | 15 kts | 26° |
| 2026-05-06 11:58 | 60.19297 | 11.11380 | 694 ft | 21 kts | 16° |
| 2026-05-06 11:59 | 60.19455 | 11.11471 | 694 ft | 26 kts | 15° |
| 2026-05-06 11:59 | 60.19636 | 11.11575 | 694 ft | 23 kts | 16° |
| 2026-05-06 11:59 | 60.19682 | 11.11601 | 694 ft | 0 kts | 16° |
| 2026-05-06 12:01 | 60.19690 | 11.11605 | 694 ft | 3 kts | 16° |
| 2026-05-06 12:01 | 60.19735 | 11.11632 | 694 ft | 9 kts | 16° |
| 2026-05-06 12:01 | 60.19807 | 11.11602 | 694 ft | 13 kts | 299° |
| 2026-05-06 12:02 | 60.19848 | 11.11394 | 694 ft | 18 kts | 286° |
| 2026-05-06 12:02 | 60.19886 | 11.11127 | 694 ft | 21 kts | 286° |
| 2026-05-06 12:02 | 60.19931 | 11.10815 | 694 ft | 23 kts | 286° |
| 2026-05-06 12:02 | 60.19974 | 11.10510 | 694 ft | 21 kts | 287° |
| 2026-05-06 12:03 | 60.20016 | 11.10229 | 694 ft | 20 kts | 286° |
| 2026-05-06 12:03 | 60.20055 | 11.09962 | 694 ft | 19 kts | 286° |
| 2026-05-06 12:03 | 60.20090 | 11.09712 | 694 ft | 18 kts | 285° |
| 2026-05-06 12:03 | 60.20123 | 11.09475 | 694 ft | 17 kts | 285° |
| 2026-05-06 12:04 | 60.20155 | 11.09249 | 694 ft | 16 kts | 285° |
| 2026-05-06 12:04 | 60.20176 | 11.09100 | 694 ft | 4 kts | 287° |
| 2026-05-06 12:04 | 60.20179 | 11.09084 | 694 ft | 0 kts | 287° |
| 2026-05-06 12:05 | 60.20179 | 11.09083 | 694 ft | 0 kts | 287° |
| 2026-05-06 12:05 | 60.20185 | 11.09046 | 694 ft | 6 kts | 287° |
| 2026-05-06 12:05 | 60.20221 | 11.08947 | 694 ft | 10 kts | 354° |
| 2026-05-06 12:05 | 60.20319 | 11.08987 | 694 ft | 17 kts | 15° |
| 2026-05-06 12:06 | 60.20441 | 11.09057 | 694 ft | 19 kts | 15° |
| 2026-05-06 12:06 | 60.20577 | 11.09134 | 694 ft | 21 kts | 15° |
| 2026-05-06 12:06 | 60.20728 | 11.09220 | 694 ft | 23 kts | 16° |
| 2026-05-06 12:06 | 60.20842 | 11.09286 | 694 ft | 24 kts | 15° |
| 2026-05-06 12:07 | 60.21016 | 11.09388 | 694 ft | 26 kts | 16° |
| 2026-05-06 12:07 | 60.21185 | 11.09486 | 694 ft | 24 kts | 17° |
| 2026-05-06 12:07 | 60.21347 | 11.09580 | 694 ft | 23 kts | 16° |
| 2026-05-06 12:07 | 60.21471 | 11.09639 | 694 ft | 14 kts | 357° |
| 2026-05-06 12:08 | 60.21541 | 11.09533 | 694 ft | 12 kts | 292° |
| 2026-05-06 12:08 | 60.21558 | 11.09429 | 694 ft | 4 kts | 287° |
| 2026-05-06 12:08 | 60.21571 | 11.09347 | 694 ft | 9 kts | 287° |
| 2026-05-06 12:08 | 60.21567 | 11.09169 | 694 ft | 16 kts | 237° |
| 2026-05-06 12:09 | 60.21516 | 11.09114 | 694 ft | 4 kts | 195° |
| 2026-05-06 12:09 | 60.21464 | 11.09084 | 694 ft | 17 kts | 197° |
| 2026-05-06 12:09 | 60.21060 | 11.08847 | 694 ft | 101 kts | 195° |
| 2026-05-06 12:09 | 60.20134 | 11.08322 | 734 ft | 168 kts | 196° |
| 2026-05-06 12:10 | 60.19002 | 11.07735 | 1607 ft | 166 kts | 194° |
| 2026-05-06 12:10 | 60.17916 | 11.07136 | 2326 ft | 168 kts | 201° |
| 2026-05-06 12:10 | 60.16911 | 11.05837 | 2688 ft | 184 kts | 227° |
| 2026-05-06 12:10 | 60.16133 | 11.03650 | 3083 ft | 202 kts | 239° |
| 2026-05-06 12:11 | 60.15461 | 11.01046 | 3488 ft | 219 kts | 244° |
| 2026-05-06 12:11 | 60.14796 | 10.98183 | 3889 ft | 236 kts | 244° |
| 2026-05-06 12:11 | 60.14089 | 10.95117 | 4423 ft | 251 kts | 244° |
| 2026-05-06 12:11 | 60.13356 | 10.91927 | 5170 ft | 257 kts | 245° |
| 2026-05-06 12:12 | 60.12604 | 10.88651 | 5936 ft | 261 kts | 245° |
| 2026-05-06 12:12 | 60.11858 | 10.85410 | 6756 ft | 263 kts | 245° |
| 2026-05-06 12:12 | 60.11088 | 10.82072 | 7583 ft | 264 kts | 245° |
| 2026-05-06 12:12 | 60.10316 | 10.78732 | 8378 ft | 266 kts | 245° |
| 2026-05-06 12:13 | 60.09547 | 10.75414 | 9169 ft | 267 kts | 245° |
| 2026-05-06 12:13 | 60.08770 | 10.72060 | 9931 ft | 269 kts | 245° |
| 2026-05-06 12:13 | 60.07974 | 10.68633 | 10476 ft | 279 kts | 245° |
| 2026-05-06 12:13 | 60.07124 | 10.65033 | 10886 ft | 294 kts | 243° |
| 2026-05-06 12:14 | 60.06002 | 10.61526 | 11307 ft | 310 kts | 233° |
| 2026-05-06 12:14 | 60.04498 | 10.58328 | 11720 ft | 327 kts | 223° |
| 2026-05-06 12:14 | 60.02616 | 10.55644 | 12179 ft | 343 kts | 213° |